American Lake, Washington
Current Conditions -  °F | °C
As of 6:58 PM on Saturday 22 Nov 2014 (Local Time) from KGRF Reporting Station
Drizzle Drizzle  
Wind Chill: 43°   Ceiling: 8000
Heat Index: 47°   Visibility: 10mi
Dew Point: 43°   Wind: 8mph
Humidity: 85%   Direction: 180°S
Pressure: 30.06"   Gusts: NA
Location:  47.1451°N, 122.578°W
Report Text: KGRF 230258Z AUTO 18007KT 10SM DZ BKN080 08/06 A3006 RMK AO2 SLP185 P0000 60000 T00820059 52031 $
Loading
Personal Weather Stations






























Interactive Weather Map New forecast layout! Learn more

10-Day Weather Forecast

Advertisements
Track Severe Weather on mobile